sensor_id;sensor_type;location;lat;lon;timestamp;P1;durP1;ratioP1;P2;durP2;ratioP2
31128;SDS011;17777;48.770;8.944;2022-08-03T00:00:04;1.55;;;1.42;;
31128;SDS011;17777;48.770;8.944;2022-08-03T00:02:37;3.05;;;1.40;;
31128;SDS011;17777;48.770;8.944;2022-08-03T00:05:03;1.83;;;1.50;;
31128;SDS011;17777;48.770;8.944;2022-08-03T00:07:32;2.55;;;1.50;;
31128;SDS011;17777;48.770;8.944;2022-08-03T00:09:58;2.00;;;1.60;;
31128;SDS011;17777;48.770;8.944;2022-08-03T00:12:24;2.65;;;1.40;;
31128;SDS011;17777;48.770;8.944;2022-08-03T00:14:50;1.20;;;1.10;;
31128;SDS011;17777;48.770;8.944;2022-08-03T00:17:15;1.55;;;1.30;;
31128;SDS011;17777;48.770;8.944;2022-08-03T00:19:41;2.25;;;1.35;;
31128;SDS011;17777;48.770;8.944;2022-08-03T00:22:07;1.10;;;0.98;;
31128;SDS011;17777;48.770;8.944;2022-08-03T00:24:33;1.40;;;1.25;;
31128;SDS011;17777;48.770;8.944;2022-08-03T00:27:00;1.38;;;1.27;;
31128;SDS011;17777;48.770;8.944;2022-08-03T00:29:26;1.55;;;1.30;;
31128;SDS011;17777;48.770;8.944;2022-08-03T00:31:52;4.25;;;1.30;;
31128;SDS011;17777;48.770;8.944;2022-08-03T00:34:17;1.42;;;1.33;;
31128;SDS011;17777;48.770;8.944;2022-08-03T00:36:43;1.67;;;1.38;;
31128;SDS011;17777;48.770;8.944;2022-08-03T00:39:09;1.23;;;1.13;;
31128;SDS011;17777;48.770;8.944;2022-08-03T00:41:35;1.30;;;1.20;;
31128;SDS011;17777;48.770;8.944;2022-08-03T00:44:01;1.60;;;1.17;;
31128;SDS011;17777;48.770;8.944;2022-08-03T00:46:26;2.83;;;1.27;;
31128;SDS011;17777;48.770;8.944;2022-08-03T00:48:52;1.23;;;1.13;;
31128;SDS011;17777;48.770;8.944;2022-08-03T00:51:21;2.22;;;1.38;;
31128;SDS011;17777;48.770;8.944;2022-08-03T00:53:48;1.50;;;1.38;;
31128;SDS011;17777;48.770;8.944;2022-08-03T00:56:15;1.65;;;1.45;;
31128;SDS011;17777;48.770;8.944;2022-08-03T00:58:45;1.60;;;1.10;;
31128;SDS011;17777;48.770;8.944;2022-08-03T01:01:11;4.72;;;1.30;;
31128;SDS011;17777;48.770;8.944;2022-08-03T01:03:39;1.38;;;1.27;;
31128;SDS011;17777;48.770;8.944;2022-08-03T01:06:13;1.52;;;1.42;;
31128;SDS011;17777;48.770;8.944;2022-08-03T01:11:43;3.10;;;1.50;;
31128;SDS011;17777;48.770;8.944;2022-08-03T01:14:32;2.78;;;1.60;;
31128;SDS011;17777;48.770;8.944;2022-08-03T01:17:16;1.60;;;1.50;;
31128;SDS011;17777;48.770;8.944;2022-08-03T01:29:02;1.42;;;1.30;;
31128;SDS011;17777;48.770;8.944;2022-08-03T01:32:17;2.60;;;1.10;;
31128;SDS011;17777;48.770;8.944;2022-08-03T01:34:50;3.85;;;1.85;;
31128;SDS011;17777;48.770;8.944;2022-08-03T01:37:46;2.10;;;1.60;;
31128;SDS011;17777;48.770;8.944;2022-08-03T01:40:18;1.88;;;1.58;;
31128;SDS011;17777;48.770;8.944;2022-08-03T01:42:46;3.78;;;1.33;;
31128;SDS011;17777;48.770;8.944;2022-08-03T01:45:14;1.77;;;1.20;;
31128;SDS011;17777;48.770;8.944;2022-08-03T01:47:44;1.35;;;1.25;;
31128;SDS011;17777;48.770;8.944;2022-08-03T01:50:12;1.45;;;1.35;;
31128;SDS011;17777;48.770;8.944;2022-08-03T01:52:39;1.30;;;1.20;;
31128;SDS011;17777;48.770;8.944;2022-08-03T01:55:08;1.48;;;1.20;;
31128;SDS011;17777;48.770;8.944;2022-08-03T01:57:37;2.85;;;1.25;;
31128;SDS011;17777;48.770;8.944;2022-08-03T02:00:05;1.23;;;1.10;;
31128;SDS011;17777;48.770;8.944;2022-08-03T02:02:37;2.10;;;1.50;;
31128;SDS011;17777;48.770;8.944;2022-08-03T02:05:05;1.38;;;1.27;;
31128;SDS011;17777;48.770;8.944;2022-08-03T02:07:33;1.40;;;1.30;;
31128;SDS011;17777;48.770;8.944;2022-08-03T02:10:00;1.63;;;1.23;;
31128;SDS011;17777;48.770;8.944;2022-08-03T02:12:29;2.13;;;1.25;;
31128;SDS011;17777;48.770;8.944;2022-08-03T02:14:56;2.28;;;1.42;;
31128;SDS011;17777;48.770;8.944;2022-08-03T02:17:25;1.90;;;1.77;;
31128;SDS011;17777;48.770;8.944;2022-08-03T02:19:53;1.55;;;1.45;;
31128;SDS011;17777;48.770;8.944;2022-08-03T02:22:22;1.40;;;1.30;;
31128;SDS011;17777;48.770;8.944;2022-08-03T02:24:49;1.58;;;1.45;;
31128;SDS011;17777;48.770;8.944;2022-08-03T02:27:19;1.20;;;1.10;;
31128;SDS011;17777;48.770;8.944;2022-08-03T02:29:55;1.35;;;1.25;;
31128;SDS011;17777;48.770;8.944;2022-08-03T02:32:29;1.60;;;1.50;;
31128;SDS011;17777;48.770;8.944;2022-08-03T02:34:59;1.40;;;1.30;;
31128;SDS011;17777;48.770;8.944;2022-08-03T02:37:27;1.35;;;1.25;;
31128;SDS011;17777;48.770;8.944;2022-08-03T02:40:02;1.65;;;1.55;;
31128;SDS011;17777;48.770;8.944;2022-08-03T02:42:33;1.67;;;1.40;;
31128;SDS011;17777;48.770;8.944;2022-08-03T02:45:03;3.60;;;1.50;;
31128;SDS011;17777;48.770;8.944;2022-08-03T02:47:32;1.83;;;1.40;;
31128;SDS011;17777;48.770;8.944;2022-08-03T02:50:02;1.58;;;1.48;;
31128;SDS011;17777;48.770;8.944;2022-08-03T02:52:29;2.47;;;1.52;;
31128;SDS011;17777;48.770;8.944;2022-08-03T02:54:58;1.80;;;1.35;;
31128;SDS011;17777;48.770;8.944;2022-08-03T02:57:28;2.10;;;1.60;;
31128;SDS011;17777;48.770;8.944;2022-08-03T02:59:56;1.77;;;1.50;;
31128;SDS011;17777;48.770;8.944;2022-08-03T03:02:23;1.85;;;1.45;;
31128;SDS011;17777;48.770;8.944;2022-08-03T03:04:50;1.83;;;1.38;;
31128;SDS011;17777;48.770;8.944;2022-08-03T03:07:17;2.10;;;1.63;;
31128;SDS011;17777;48.770;8.944;2022-08-03T03:09:44;1.55;;;1.45;;
31128;SDS011;17777;48.770;8.944;2022-08-03T03:12:11;1.95;;;1.17;;
31128;SDS011;17777;48.770;8.944;2022-08-03T03:14:38;1.48;;;1.38;;
31128;SDS011;17777;48.770;8.944;2022-08-03T03:17:08;1.40;;;1.30;;
31128;SDS011;17777;48.770;8.944;2022-08-03T03:19:35;1.40;;;1.30;;
31128;SDS011;17777;48.770;8.944;2022-08-03T03:22:03;2.53;;;1.45;;
31128;SDS011;17777;48.770;8.944;2022-08-03T03:24:31;1.55;;;1.40;;
31128;SDS011;17777;48.770;8.944;2022-08-03T03:27:00;1.60;;;1.50;;
31128;SDS011;17777;48.770;8.944;2022-08-03T03:29:26;2.33;;;1.40;;
31128;SDS011;17777;48.770;8.944;2022-08-03T03:31:52;3.33;;;1.45;;
31128;SDS011;17777;48.770;8.944;2022-08-03T03:34:18;1.52;;;1.42;;
31128;SDS011;17777;48.770;8.944;2022-08-03T03:36:44;1.40;;;1.30;;
31128;SDS011;17777;48.770;8.944;2022-08-03T03:39:10;1.95;;;1.60;;
31128;SDS011;17777;48.770;8.944;2022-08-03T03:41:36;3.70;;;1.70;;
31128;SDS011;17777;48.770;8.944;2022-08-03T03:44:04;1.70;;;1.60;;
31128;SDS011;17777;48.770;8.944;2022-08-03T03:46:30;1.60;;;1.50;;
31128;SDS011;17777;48.770;8.944;2022-08-03T03:48:56;1.63;;;1.52;;
31128;SDS011;17777;48.770;8.944;2022-08-03T03:51:22;1.90;;;1.80;;
31128;SDS011;17777;48.770;8.944;2022-08-03T03:53:54;1.50;;;1.40;;
31128;SDS011;17777;48.770;8.944;2022-08-03T03:56:25;3.30;;;1.67;;
31128;SDS011;17777;48.770;8.944;2022-08-03T03:58:53;1.55;;;1.45;;
31128;SDS011;17777;48.770;8.944;2022-08-03T04:01:20;1.50;;;1.40;;
31128;SDS011;17777;48.770;8.944;2022-08-03T04:03:46;2.47;;;1.70;;
31128;SDS011;17777;48.770;8.944;2022-08-03T04:06:12;1.40;;;1.30;;
31128;SDS011;17777;48.770;8.944;2022-08-03T04:08:57;1.95;;;1.83;;
31128;SDS011;17777;48.770;8.944;2022-08-03T04:16:57;1.70;;;1.60;;
31128;SDS011;17777;48.770;8.944;2022-08-03T04:19:28;6.82;;;1.90;;
31128;SDS011;17777;48.770;8.944;2022-08-03T04:22:00;2.20;;;2.00;;
31128;SDS011;17777;48.770;8.944;2022-08-03T04:24:32;2.65;;;1.60;;
31128;SDS011;17777;48.770;8.944;2022-08-03T04:27:08;4.22;;;1.60;;
31128;SDS011;17777;48.770;8.944;2022-08-03T04:29:39;2.03;;;1.85;;
31128;SDS011;17777;48.770;8.944;2022-08-03T04:32:10;2.35;;;1.80;;
31128;SDS011;17777;48.770;8.944;2022-08-03T04:34:37;1.95;;;1.85;;
31128;SDS011;17777;48.770;8.944;2022-08-03T04:37:04;3.85;;;1.55;;
31128;SDS011;17777;48.770;8.944;2022-08-03T04:39:38;2.90;;;1.80;;
31128;SDS011;17777;48.770;8.944;2022-08-03T04:42:07;3.50;;;1.90;;
31128;SDS011;17777;48.770;8.944;2022-08-03T04:44:39;2.10;;;1.70;;
31128;SDS011;17777;48.770;8.944;2022-08-03T04:47:08;1.88;;;1.70;;
31128;SDS011;17777;48.770;8.944;2022-08-03T04:49:34;1.75;;;1.65;;
31128;SDS011;17777;48.770;8.944;2022-08-03T04:52:02;2.67;;;1.60;;
31128;SDS011;17777;48.770;8.944;2022-08-03T04:54:29;2.58;;;1.73;;
31128;SDS011;17777;48.770;8.944;2022-08-03T04:57:03;2.25;;;1.70;;
31128;SDS011;17777;48.770;8.944;2022-08-03T04:59:29;1.75;;;1.65;;
31128;SDS011;17777;48.770;8.944;2022-08-03T05:01:54;2.15;;;1.95;;
31128;SDS011;17777;48.770;8.944;2022-08-03T05:04:20;3.80;;;1.80;;
31128;SDS011;17777;48.770;8.944;2022-08-03T05:06:47;2.97;;;2.05;;
31128;SDS011;17777;48.770;8.944;2022-08-03T05:09:12;2.67;;;1.70;;
31128;SDS011;17777;48.770;8.944;2022-08-03T05:11:38;2.70;;;1.85;;
31128;SDS011;17777;48.770;8.944;2022-08-03T05:14:04;2.58;;;2.10;;
31128;SDS011;17777;48.770;8.944;2022-08-03T05:16:32;2.30;;;2.00;;
31128;SDS011;17777;48.770;8.944;2022-08-03T05:18:58;3.13;;;1.95;;
31128;SDS011;17777;48.770;8.944;2022-08-03T05:21:24;2.65;;;1.92;;
31128;SDS011;17777;48.770;8.944;2022-08-03T05:23:50;1.85;;;1.70;;
31128;SDS011;17777;48.770;8.944;2022-08-03T05:26:15;2.00;;;1.80;;
31128;SDS011;17777;48.770;8.944;2022-08-03T05:28:41;1.85;;;1.70;;
31128;SDS011;17777;48.770;8.944;2022-08-03T05:31:07;2.28;;;2.03;;
31128;SDS011;17777;48.770;8.944;2022-08-03T05:33:33;2.25;;;2.00;;
31128;SDS011;17777;48.770;8.944;2022-08-03T05:35:58;2.45;;;2.03;;
31128;SDS011;17777;48.770;8.944;2022-08-03T05:38:25;2.80;;;1.88;;
31128;SDS011;17777;48.770;8.944;2022-08-03T05:40:51;1.95;;;1.70;;
31128;SDS011;17777;48.770;8.944;2022-08-03T05:43:17;2.13;;;2.03;;
31128;SDS011;17777;48.770;8.944;2022-08-03T05:45:43;4.25;;;1.58;;
31128;SDS011;17777;48.770;8.944;2022-08-03T05:48:08;2.00;;;1.83;;
31128;SDS011;17777;48.770;8.944;2022-08-03T05:50:34;2.00;;;1.90;;
31128;SDS011;17777;48.770;8.944;2022-08-03T05:53:00;2.63;;;1.65;;
31128;SDS011;17777;48.770;8.944;2022-08-03T05:55:27;11.52;;;2.10;;
31128;SDS011;17777;48.770;8.944;2022-08-03T05:57:52;1.75;;;1.65;;
31128;SDS011;17777;48.770;8.944;2022-08-03T06:00:18;3.83;;;2.10;;
31128;SDS011;17777;48.770;8.944;2022-08-03T06:02:44;2.30;;;2.00;;
31128;SDS011;17777;48.770;8.944;2022-08-03T06:05:10;3.25;;;2.00;;
31128;SDS011;17777;48.770;8.944;2022-08-03T06:07:36;2.20;;;1.75;;
31128;SDS011;17777;48.770;8.944;2022-08-03T06:10:02;3.17;;;1.48;;
31128;SDS011;17777;48.770;8.944;2022-08-03T06:12:29;2.92;;;1.63;;
31128;SDS011;17777;48.770;8.944;2022-08-03T06:14:55;1.60;;;1.50;;
31128;SDS011;17777;48.770;8.944;2022-08-03T06:17:21;1.58;;;1.48;;
31128;SDS011;17777;48.770;8.944;2022-08-03T06:19:47;2.55;;;1.90;;
31128;SDS011;17777;48.770;8.944;2022-08-03T06:22:12;1.63;;;1.50;;
31128;SDS011;17777;48.770;8.944;2022-08-03T06:24:38;1.77;;;1.67;;
31128;SDS011;17777;48.770;8.944;2022-08-03T06:27:04;4.53;;;1.48;;
31128;SDS011;17777;48.770;8.944;2022-08-03T06:29:30;1.83;;;1.73;;
31128;SDS011;17777;48.770;8.944;2022-08-03T06:31:55;4.35;;;2.10;;
31128;SDS011;17777;48.770;8.944;2022-08-03T06:34:21;4.85;;;1.70;;
31128;SDS011;17777;48.770;8.944;2022-08-03T06:36:47;2.05;;;1.63;;
31128;SDS011;17777;48.770;8.944;2022-08-03T06:39:15;4.00;;;1.70;;
31128;SDS011;17777;48.770;8.944;2022-08-03T06:41:42;1.60;;;1.50;;
31128;SDS011;17777;48.770;8.944;2022-08-03T06:44:08;4.00;;;1.85;;
31128;SDS011;17777;48.770;8.944;2022-08-03T06:46:33;1.70;;;1.60;;
31128;SDS011;17777;48.770;8.944;2022-08-03T06:48:59;3.88;;;1.40;;
31128;SDS011;17777;48.770;8.944;2022-08-03T06:51:25;1.60;;;1.50;;
31128;SDS011;17777;48.770;8.944;2022-08-03T06:53:51;1.45;;;1.35;;
31128;SDS011;17777;48.770;8.944;2022-08-03T06:56:16;1.65;;;1.48;;
31128;SDS011;17777;48.770;8.944;2022-08-03T06:58:43;1.67;;;1.45;;
31128;SDS011;17777;48.770;8.944;2022-08-03T07:01:10;3.60;;;1.38;;
31128;SDS011;17777;48.770;8.944;2022-08-03T07:03:36;1.98;;;1.63;;
31128;SDS011;17777;48.770;8.944;2022-08-03T07:06:02;2.10;;;1.70;;
31128;SDS011;17777;48.770;8.944;2022-08-03T07:08:28;1.50;;;1.40;;
31128;SDS011;17777;48.770;8.944;2022-08-03T07:10:53;1.65;;;1.27;;
31128;SDS011;17777;48.770;8.944;2022-08-03T07:13:19;4.53;;;1.85;;
31128;SDS011;17777;48.770;8.944;2022-08-03T07:15:45;1.85;;;1.48;;
31128;SDS011;17777;48.770;8.944;2022-08-03T07:18:11;1.38;;;1.20;;
31128;SDS011;17777;48.770;8.944;2022-08-03T07:20:36;1.30;;;1.00;;
31128;SDS011;17777;48.770;8.944;2022-08-03T07:23:02;1.63;;;1.23;;
31128;SDS011;17777;48.770;8.944;2022-08-03T07:25:28;1.77;;;1.35;;
31128;SDS011;17777;48.770;8.944;2022-08-03T07:27:54;1.13;;;1.02;;
31128;SDS011;17777;48.770;8.944;2022-08-03T07:30:19;1.00;;;1.00;;
31128;SDS011;17777;48.770;8.944;2022-08-03T07:32:45;2.55;;;1.30;;
31128;SDS011;17777;48.770;8.944;2022-08-03T07:35:11;1.85;;;1.30;;
31128;SDS011;17777;48.770;8.944;2022-08-03T07:37:37;1.08;;;0.98;;
31128;SDS011;17777;48.770;8.944;2022-08-03T07:40:03;1.25;;;0.93;;
31128;SDS011;17777;48.770;8.944;2022-08-03T07:42:30;1.20;;;0.90;;
31128;SDS011;17777;48.770;8.944;2022-08-03T07:44:57;1.73;;;1.10;;
31128;SDS011;17777;48.770;8.944;2022-08-03T07:47:24;1.40;;;1.10;;
31128;SDS011;17777;48.770;8.944;2022-08-03T07:49:53;1.33;;;1.05;;
31128;SDS011;17777;48.770;8.944;2022-08-03T07:52:19;1.15;;;1.05;;
31128;SDS011;17777;48.770;8.944;2022-08-03T07:55:04;0.80;;;0.80;;
31128;SDS011;17777;48.770;8.944;2022-08-03T07:57:38;1.10;;;0.98;;
31128;SDS011;17777;48.770;8.944;2022-08-03T08:00:15;1.40;;;1.02;;
31128;SDS011;17777;48.770;8.944;2022-08-03T08:02:43;0.80;;;0.80;;
31128;SDS011;17777;48.770;8.944;2022-08-03T08:05:09;1.50;;;1.00;;
31128;SDS011;17777;48.770;8.944;2022-08-03T08:07:36;0.88;;;0.88;;
31128;SDS011;17777;48.770;8.944;2022-08-03T08:10:06;0.50;;;0.50;;
31128;SDS011;17777;48.770;8.944;2022-08-03T08:12:34;0.82;;;0.82;;
31128;SDS011;17777;48.770;8.944;2022-08-03T08:15:00;1.10;;;0.70;;
31128;SDS011;17777;48.770;8.944;2022-08-03T08:17:27;0.73;;;0.73;;
31128;SDS011;17777;48.770;8.944;2022-08-03T08:19:53;1.95;;;0.90;;
31128;SDS011;17777;48.770;8.944;2022-08-03T08:22:18;0.50;;;0.50;;
31128;SDS011;17777;48.770;8.944;2022-08-03T08:24:44;1.42;;;0.90;;
31128;SDS011;17777;48.770;8.944;2022-08-03T08:27:12;1.00;;;0.90;;
31128;SDS011;17777;48.770;8.944;2022-08-03T08:29:38;0.98;;;0.90;;
31128;SDS011;17777;48.770;8.944;2022-08-03T08:32:04;0.70;;;0.70;;
31128;SDS011;17777;48.770;8.944;2022-08-03T08:34:30;1.35;;;0.80;;
31128;SDS011;17777;48.770;8.944;2022-08-03T08:36:56;0.70;;;0.70;;
31128;SDS011;17777;48.770;8.944;2022-08-03T08:39:22;0.50;;;0.50;;
31128;SDS011;17777;48.770;8.944;2022-08-03T08:41:51;1.02;;;0.60;;
31128;SDS011;17777;48.770;8.944;2022-08-03T08:44:17;0.85;;;0.80;;
31128;SDS011;17777;48.770;8.944;2022-08-03T08:46:43;0.82;;;0.82;;
31128;SDS011;17777;48.770;8.944;2022-08-03T08:49:09;0.60;;;0.60;;
31128;SDS011;17777;48.770;8.944;2022-08-03T08:51:36;0.88;;;0.63;;
31128;SDS011;17777;48.770;8.944;2022-08-03T08:54:06;1.90;;;0.55;;
31128;SDS011;17777;48.770;8.944;2022-08-03T08:56:32;0.88;;;0.60;;
31128;SDS011;17777;48.770;8.944;2022-08-03T08:59:00;0.60;;;0.60;;
31128;SDS011;17777;48.770;8.944;2022-08-03T09:01:26;1.30;;;0.40;;
31128;SDS011;17777;48.770;8.944;2022-08-03T09:03:53;0.50;;;0.50;;
31128;SDS011;17777;48.770;8.944;2022-08-03T09:06:19;0.50;;;0.50;;
31128;SDS011;17777;48.770;8.944;2022-08-03T09:08:45;0.40;;;0.40;;
31128;SDS011;17777;48.770;8.944;2022-08-03T09:11:11;0.70;;;0.70;;
31128;SDS011;17777;48.770;8.944;2022-08-03T09:13:37;0.50;;;0.50;;
31128;SDS011;17777;48.770;8.944;2022-08-03T09:18:52;0.40;;;0.38;;
31128;SDS011;17777;48.770;8.944;2022-08-03T09:23:53;0.88;;;0.60;;
31128;SDS011;17777;48.770;8.944;2022-08-03T09:26:25;0.52;;;0.50;;
31128;SDS011;17777;48.770;8.944;2022-08-03T09:29:00;0.63;;;0.40;;
31128;SDS011;17777;48.770;8.944;2022-08-03T09:34:01;0.60;;;0.60;;
31128;SDS011;17777;48.770;8.944;2022-08-03T09:36:45;1.45;;;0.40;;
31128;SDS011;17777;48.770;8.944;2022-08-03T09:39:15;1.02;;;0.60;;
31128;SDS011;17777;48.770;8.944;2022-08-03T09:42:06;0.80;;;0.52;;
31128;SDS011;17777;48.770;8.944;2022-08-03T09:44:43;0.57;;;0.47;;
31128;SDS011;17777;48.770;8.944;2022-08-03T09:47:12;0.40;;;0.40;;
31128;SDS011;17777;48.770;8.944;2022-08-03T09:49:59;0.50;;;0.50;;
31128;SDS011;17777;48.770;8.944;2022-08-03T09:55:07;0.40;;;0.40;;
31128;SDS011;17777;48.770;8.944;2022-08-03T09:57:35;0.93;;;0.70;;
31128;SDS011;17777;48.770;8.944;2022-08-03T10:00:09;0.75;;;0.50;;
31128;SDS011;17777;48.770;8.944;2022-08-03T10:02:40;0.70;;;0.70;;
31128;SDS011;17777;48.770;8.944;2022-08-03T10:05:09;2.15;;;0.60;;
31128;SDS011;17777;48.770;8.944;2022-08-03T10:07:43;0.63;;;0.63;;
31128;SDS011;17777;48.770;8.944;2022-08-03T10:10:14;0.70;;;0.70;;
31128;SDS011;17777;48.770;8.944;2022-08-03T10:12:42;0.60;;;0.60;;
31128;SDS011;17777;48.770;8.944;2022-08-03T10:15:09;0.80;;;0.77;;
31128;SDS011;17777;48.770;8.944;2022-08-03T10:17:35;0.70;;;0.50;;
31128;SDS011;17777;48.770;8.944;2022-08-03T10:20:03;2.17;;;0.82;;
31128;SDS011;17777;48.770;8.944;2022-08-03T10:22:34;0.50;;;0.50;;
31128;SDS011;17777;48.770;8.944;2022-08-03T10:27:40;2.88;;;0.75;;
31128;SDS011;17777;48.770;8.944;2022-08-03T10:30:07;0.68;;;0.68;;
31128;SDS011;17777;48.770;8.944;2022-08-03T10:32:39;0.70;;;0.70;;
31128;SDS011;17777;48.770;8.944;2022-08-03T10:35:17;1.05;;;0.60;;
31128;SDS011;17777;48.770;8.944;2022-08-03T10:37:51;0.75;;;0.50;;
31128;SDS011;17777;48.770;8.944;2022-08-03T10:40:22;0.95;;;0.73;;
31128;SDS011;17777;48.770;8.944;2022-08-03T10:42:50;2.35;;;0.60;;
31128;SDS011;17777;48.770;8.944;2022-08-03T10:45:22;2.55;;;0.60;;
31128;SDS011;17777;48.770;8.944;2022-08-03T10:47:51;0.55;;;0.52;;
31128;SDS011;17777;48.770;8.944;2022-08-03T10:50:21;0.45;;;0.45;;
31128;SDS011;17777;48.770;8.944;2022-08-03T10:52:55;1.10;;;0.70;;
31128;SDS011;17777;48.770;8.944;2022-08-03T10:55:33;1.23;;;0.70;;
31128;SDS011;17777;48.770;8.944;2022-08-03T11:03:33;0.57;;;0.57;;
31128;SDS011;17777;48.770;8.944;2022-08-03T11:06:22;0.75;;;0.70;;
31128;SDS011;17777;48.770;8.944;2022-08-03T11:09:35;0.60;;;0.60;;
31128;SDS011;17777;48.770;8.944;2022-08-03T11:11:36;1.23;;;0.70;;
31128;SDS011;17777;48.770;8.944;2022-08-03T11:14:11;0.90;;;0.73;;
31128;SDS011;17777;48.770;8.944;2022-08-03T11:16:46;0.90;;;0.73;;
31128;SDS011;17777;48.770;8.944;2022-08-03T11:19:15;0.70;;;0.70;;
31128;SDS011;17777;48.770;8.944;2022-08-03T11:21:53;0.45;;;0.45;;
31128;SDS011;17777;48.770;8.944;2022-08-03T11:29:58;0.60;;;0.60;;
31128;SDS011;17777;48.770;8.944;2022-08-03T11:35:05;0.68;;;0.68;;
31128;SDS011;17777;48.770;8.944;2022-08-03T11:40:38;0.50;;;0.50;;
31128;SDS011;17777;48.770;8.944;2022-08-03T11:48:35;2.00;;;0.70;;
31128;SDS011;17777;48.770;8.944;2022-08-03T11:53:54;0.85;;;0.60;;
31128;SDS011;17777;48.770;8.944;2022-08-03T11:56:25;0.50;;;0.50;;
31128;SDS011;17777;48.770;8.944;2022-08-03T11:58:53;1.67;;;0.82;;
31128;SDS011;17777;48.770;8.944;2022-08-03T12:01:22;0.60;;;0.60;;
31128;SDS011;17777;48.770;8.944;2022-08-03T12:03:49;2.25;;;0.88;;
31128;SDS011;17777;48.770;8.944;2022-08-03T12:06:16;0.60;;;0.60;;
31128;SDS011;17777;48.770;8.944;2022-08-03T12:08:43;2.05;;;0.70;;
31128;SDS011;17777;48.770;8.944;2022-08-03T12:11:10;0.77;;;0.60;;
31128;SDS011;17777;48.770;8.944;2022-08-03T12:16:21;0.50;;;0.50;;
31128;SDS011;17777;48.770;8.944;2022-08-03T12:18:59;0.77;;;0.70;;
31128;SDS011;17777;48.770;8.944;2022-08-03T12:21:27;0.70;;;0.70;;
31128;SDS011;17777;48.770;8.944;2022-08-03T12:23:57;0.60;;;0.60;;
31128;SDS011;17777;48.770;8.944;2022-08-03T12:26:29;1.52;;;0.82;;
31128;SDS011;17777;48.770;8.944;2022-08-03T12:29:17;0.70;;;0.70;;
31128;SDS011;17777;48.770;8.944;2022-08-03T12:34:11;0.60;;;0.60;;
31128;SDS011;17777;48.770;8.944;2022-08-03T12:36:37;0.60;;;0.60;;
31128;SDS011;17777;48.770;8.944;2022-08-03T12:39:23;0.70;;;0.60;;
31128;SDS011;17777;48.770;8.944;2022-08-03T12:41:52;0.68;;;0.63;;
31128;SDS011;17777;48.770;8.944;2022-08-03T12:44:28;0.60;;;0.60;;
31128;SDS011;17777;48.770;8.944;2022-08-03T12:46:57;0.60;;;0.60;;
31128;SDS011;17777;48.770;8.944;2022-08-03T12:49:24;1.15;;;0.80;;
31128;SDS011;17777;48.770;8.944;2022-08-03T12:54:16;0.90;;;0.70;;
31128;SDS011;17777;48.770;8.944;2022-08-03T12:59:34;1.52;;;0.65;;
31128;SDS011;17777;48.770;8.944;2022-08-03T13:02:19;0.68;;;0.52;;
31128;SDS011;17777;48.770;8.944;2022-08-03T13:04:47;0.63;;;0.52;;
31128;SDS011;17777;48.770;8.944;2022-08-03T13:07:15;1.25;;;0.70;;
31128;SDS011;17777;48.770;8.944;2022-08-03T13:09:43;1.90;;;0.82;;
31128;SDS011;17777;48.770;8.944;2022-08-03T13:12:14;0.88;;;0.80;;
31128;SDS011;17777;48.770;8.944;2022-08-03T13:14:46;0.82;;;0.70;;
31128;SDS011;17777;48.770;8.944;2022-08-03T13:17:14;0.77;;;0.68;;
31128;SDS011;17777;48.770;8.944;2022-08-03T13:19:40;0.70;;;0.70;;
31128;SDS011;17777;48.770;8.944;2022-08-03T13:22:12;0.57;;;0.57;;
31128;SDS011;17777;48.770;8.944;2022-08-03T13:24:47;0.80;;;0.80;;
31128;SDS011;17777;48.770;8.944;2022-08-03T13:27:16;0.50;;;0.50;;
31128;SDS011;17777;48.770;8.944;2022-08-03T13:29:42;0.63;;;0.60;;
31128;SDS011;17777;48.770;8.944;2022-08-03T13:32:08;0.60;;;0.60;;
31128;SDS011;17777;48.770;8.944;2022-08-03T13:34:35;0.60;;;0.60;;
31128;SDS011;17777;48.770;8.944;2022-08-03T13:37:01;0.50;;;0.50;;
31128;SDS011;17777;48.770;8.944;2022-08-03T13:39:27;0.60;;;0.60;;
31128;SDS011;17777;48.770;8.944;2022-08-03T13:41:53;0.60;;;0.60;;
31128;SDS011;17777;48.770;8.944;2022-08-03T13:44:19;0.57;;;0.50;;
31128;SDS011;17777;48.770;8.944;2022-08-03T13:46:45;2.78;;;0.70;;
31128;SDS011;17777;48.770;8.944;2022-08-03T13:49:12;0.88;;;0.60;;
31128;SDS011;17777;48.770;8.944;2022-08-03T13:51:38;0.88;;;0.65;;
31128;SDS011;17777;48.770;8.944;2022-08-03T13:54:04;0.60;;;0.60;;
31128;SDS011;17777;48.770;8.944;2022-08-03T13:56:30;0.98;;;0.50;;
31128;SDS011;17777;48.770;8.944;2022-08-03T13:58:56;0.50;;;0.50;;
31128;SDS011;17777;48.770;8.944;2022-08-03T14:01:23;0.80;;;0.57;;
31128;SDS011;17777;48.770;8.944;2022-08-03T14:03:49;0.73;;;0.68;;
31128;SDS011;17777;48.770;8.944;2022-08-03T14:06:20;5.95;;;0.52;;
31128;SDS011;17777;48.770;8.944;2022-08-03T14:08:47;0.70;;;0.70;;
31128;SDS011;17777;48.770;8.944;2022-08-03T14:11:13;0.70;;;0.70;;
31128;SDS011;17777;48.770;8.944;2022-08-03T14:13:39;4.00;;;0.57;;
31128;SDS011;17777;48.770;8.944;2022-08-03T14:16:06;1.00;;;0.57;;
31128;SDS011;17777;48.770;8.944;2022-08-03T14:18:32;2.53;;;0.60;;
31128;SDS011;17777;48.770;8.944;2022-08-03T14:20:57;0.50;;;0.50;;
31128;SDS011;17777;48.770;8.944;2022-08-03T14:23:24;0.43;;;0.43;;
31128;SDS011;17777;48.770;8.944;2022-08-03T14:25:50;0.50;;;0.50;;
31128;SDS011;17777;48.770;8.944;2022-08-03T14:28:16;0.65;;;0.60;;
31128;SDS011;17777;48.770;8.944;2022-08-03T14:30:44;0.93;;;0.75;;
31128;SDS011;17777;48.770;8.944;2022-08-03T14:33:10;0.50;;;0.50;;
31128;SDS011;17777;48.770;8.944;2022-08-03T14:35:35;0.60;;;0.60;;
31128;SDS011;17777;48.770;8.944;2022-08-03T14:38:01;2.83;;;0.65;;
31128;SDS011;17777;48.770;8.944;2022-08-03T14:40:27;1.00;;;0.70;;
31128;SDS011;17777;48.770;8.944;2022-08-03T14:42:53;0.57;;;0.50;;
31128;SDS011;17777;48.770;8.944;2022-08-03T14:45:19;0.50;;;0.50;;
31128;SDS011;17777;48.770;8.944;2022-08-03T14:47:45;1.05;;;0.50;;
31128;SDS011;17777;48.770;8.944;2022-08-03T14:50:10;0.60;;;0.50;;
31128;SDS011;17777;48.770;8.944;2022-08-03T14:52:36;0.43;;;0.43;;
31128;SDS011;17777;48.770;8.944;2022-08-03T14:55:02;0.85;;;0.60;;
31128;SDS011;17777;48.770;8.944;2022-08-03T14:57:28;0.73;;;0.40;;
31128;SDS011;17777;48.770;8.944;2022-08-03T14:59:53;0.57;;;0.57;;
31128;SDS011;17777;48.770;8.944;2022-08-03T15:02:19;1.98;;;0.70;;
31128;SDS011;17777;48.770;8.944;2022-08-03T15:04:45;0.50;;;0.50;;
31128;SDS011;17777;48.770;8.944;2022-08-03T15:07:11;0.70;;;0.68;;
31128;SDS011;17777;48.770;8.944;2022-08-03T15:09:36;0.60;;;0.60;;
31128;SDS011;17777;48.770;8.944;2022-08-03T15:12:03;0.75;;;0.60;;
31128;SDS011;17777;48.770;8.944;2022-08-03T15:14:30;1.92;;;0.60;;
31128;SDS011;17777;48.770;8.944;2022-08-03T15:16:56;0.52;;;0.50;;
31128;SDS011;17777;48.770;8.944;2022-08-03T15:19:22;1.25;;;0.50;;
31128;SDS011;17777;48.770;8.944;2022-08-03T15:21:48;0.90;;;0.55;;
31128;SDS011;17777;48.770;8.944;2022-08-03T15:24:14;0.95;;;0.57;;
31128;SDS011;17777;48.770;8.944;2022-08-03T15:26:40;0.60;;;0.60;;
31128;SDS011;17777;48.770;8.944;2022-08-03T15:29:05;0.90;;;0.60;;
31128;SDS011;17777;48.770;8.944;2022-08-03T15:31:32;0.60;;;0.60;;
31128;SDS011;17777;48.770;8.944;2022-08-03T15:33:58;1.15;;;0.60;;
31128;SDS011;17777;48.770;8.944;2022-08-03T15:36:25;0.40;;;0.40;;
31128;SDS011;17777;48.770;8.944;2022-08-03T15:38:51;0.88;;;0.60;;
31128;SDS011;17777;48.770;8.944;2022-08-03T15:41:17;0.52;;;0.50;;
31128;SDS011;17777;48.770;8.944;2022-08-03T15:43:44;0.50;;;0.45;;
31128;SDS011;17777;48.770;8.944;2022-08-03T15:46:11;0.50;;;0.50;;
31128;SDS011;17777;48.770;8.944;2022-08-03T15:48:38;0.50;;;0.50;;
31128;SDS011;17777;48.770;8.944;2022-08-03T15:51:05;0.55;;;0.55;;
31128;SDS011;17777;48.770;8.944;2022-08-03T15:53:32;0.43;;;0.43;;
31128;SDS011;17777;48.770;8.944;2022-08-03T15:55:58;0.73;;;0.50;;
31128;SDS011;17777;48.770;8.944;2022-08-03T15:58:25;0.50;;;0.50;;
31128;SDS011;17777;48.770;8.944;2022-08-03T16:00:57;1.95;;;0.75;;